ENSH/SVJ METAR and TAF weather

Enter ICAO airport designator
Station Type Date Time Source
ENSH METAR 2019/12/10 03:20 UTC NOAA

ENSH 100320Z 35007KT 9999 -SHSN FEW012 SCT025 BKN035 M02/M06 Q1001 RMK WIND 150FT 35012KT


Station Type Date Time Source
ENSH Decoded METAR 2019/12/10 03:20 UTC NOAA

Svolvaer / Helle, Norway (ENSH) 68-15N 014-40E 9M
Dec 09, 2019 - 10:20 PM EST / 2019.12.10 0320 UTC
Wind: from the N (350 degrees) at 8 MPH (7 KT):0
Visibility: greater than 7 mile(s):0
Sky conditions: mostly cloudy
Weather: light snow showers
Temperature: 28 F (-2 C)
Windchill: 19 F (-7 C):1
Dew Point: 21 F (-6 C)
Relative Humidity: 74%
Pressure (altimeter): 29.56 in. Hg (1001 hPa)
ob: ENSH 100320Z 35007KT 9999 -SHSN FEW012 SCT025 BKN035 M02/M06 Q1001 RMK WIND 150FT 35012KT
cycle: 3

Station Type Date Time Source
ENSH TAF UTC NOAA

Error!

Example: see airport list